Greenville, SC

10:09 AM EDT on June 02, 2015 (GMT -0400)
Altamont Forest | | Change Station
CLOSE
Current Station
Personal Weather Station
Location: Greenville, SC
Elevation: 1818 ft
Nearby Weather Stations

Elev 1818 ft 34.94 °N, 82.41 °W | Updated 28 seconds ago

Overcast
Overcast
68.4 °F
Feels Like 68.4 °F
N
0.0
Wind Variable Wind from SW
Gusts 0.0 mph

Today
High -- | Low -- °F
--% Chance of Precip.
Yesterday
High -- | Low -- °F
Precip. -- in
6:16 AM 8:38 PM
Full, 100% visible
Pressure 30.03 in
Visibility 10.0 miles
Clouds Few 6500 ft
Scattered Clouds 8000 ft
Mostly Cloudy 12000 ft
Dew Point 22 °F
Humidity 17%
Rainfall 0.00 in
Snow Depth Not available.
UV 3 out of 12
Pollen 2.40 out of 12
Air Quality Not available.
Flu Activity Local Activity
METAR KGMU 021353Z 00000KT 10SM FEW065 SCT080 BKN120 22/17 A3005 RMK AO2 RAE44 SLP168 P0002 T02170167

More Conditions Fewer Conditions

Pressure 30.03 in
Visibility 10.0 miles
Clouds Few 6500 ft
Scattered Clouds 8000 ft
Mostly Cloudy 12000 ft
Dew Point 22 °F
Humidity 17%
Rainfall 0.00 in
Snow Depth Not available.
UV 3 out of 12
Pollen 2.40 out of 12
Air Quality Not available.
Flu Activity Local Activity
METAR KGMU 021353Z 00000KT 10SM FEW065 SCT080 BKN120 22/17 A3005 RMK AO2 RAE44 SLP168 P0002 T02170167

More Conditions Fewer Conditions

10-Day Weather Forecast

Almanac

Astronomy

Jun. 02, 2015 Rise Set
Actual Time
Civil Twilight
Nautical Twilight
Astronomical Twilight
Moon
Length of Visible Light
Length of Day
Tomorrow will be .
, % of the Moon is Illuminated

Today's Extremes

State Highs State Lows

Community

WunderPhotos

Upload Photos

1,825,915 photos uploaded!

WunderBlogs® & News

Nearby

Air Quality

  Air Quality AQ Index Pollutant
Not available.

Snow Depth

Station Depth Elevation

Earthquake Activity

City Distance Mag. Time & Date
Minimum magnitude displayed is 2.5.

Coastal Water Temperatures

Place Temperature

Stations

Nearby Weather Stations

Station Location Temp. Windchill Dew Point Humidity Wind Precip. Elev Updated Type